createdAt,value
2022-12-06T00:02:24.524Z,5.15
2022-12-06T00:04:58.835Z,5.78
2022-12-06T00:07:33.110Z,4.72
2022-12-06T00:10:07.597Z,5.20
2022-12-06T00:12:40.708Z,5.07
2022-12-06T00:15:13.961Z,5.57
2022-12-06T00:17:47.083Z,7.18
2022-12-06T00:20:21.517Z,5.68
2022-12-06T00:22:54.602Z,5.25
2022-12-06T00:25:27.865Z,5.82
2022-12-06T00:28:00.868Z,5.45
2022-12-06T00:30:33.901Z,6.80
2022-12-06T00:33:07.218Z,6.35
2022-12-06T00:35:41.650Z,5.75
2022-12-06T00:38:14.826Z,4.95
2022-12-06T00:40:47.976Z,5.45
2022-12-06T00:43:21.053Z,5.45
2022-12-06T00:45:54.063Z,7.43
2022-12-06T00:48:27.385Z,5.47
2022-12-06T00:51:02.198Z,6.22
2022-12-06T00:53:35.345Z,4.90
2022-12-06T00:56:08.939Z,6.20
2022-12-06T00:58:42.766Z,6.32
2022-12-06T01:01:18.217Z,4.90
2022-12-06T01:03:53.403Z,6.05
2022-12-06T01:06:29.985Z,5.72
2022-12-06T01:09:06.489Z,4.97
2022-12-06T01:11:39.621Z,5.90
2022-12-06T01:14:12.438Z,6.78
2022-12-06T01:16:45.375Z,5.75
2022-12-06T01:19:18.133Z,5.32
2022-12-06T01:21:52.445Z,6.35
2022-12-06T01:24:25.608Z,8.05
2022-12-06T01:26:58.754Z,7.35
2022-12-06T01:29:31.930Z,6.85
2022-12-06T01:32:04.988Z,6.63
2022-12-06T01:34:37.948Z,6.65
2022-12-06T01:37:12.178Z,6.10
2022-12-06T01:39:45.503Z,4.78
2022-12-06T01:42:18.649Z,5.53
2022-12-06T01:44:53.374Z,5.60
2022-12-06T01:47:28.519Z,6.10
2022-12-06T01:50:05.858Z,5.65
2022-12-06T01:52:48.732Z,5.18
2022-12-06T01:55:23.661Z,5.95
2022-12-06T01:58:01.658Z,5.47
2022-12-06T02:00:34.738Z,5.05
2022-12-06T02:03:12.016Z,6.30
2022-12-06T02:05:45.462Z,4.85
2022-12-06T02:08:22.043Z,6.40
2022-12-06T02:10:55.744Z,6.57
2022-12-06T02:13:29.365Z,5.45
2022-12-06T02:16:12.734Z,7.25
2022-12-06T02:18:51.014Z,5.60
2022-12-06T02:21:35.067Z,6.70
2022-12-06T02:24:37.285Z,6.68
2022-12-06T02:27:33.697Z,5.53
2022-12-06T02:30:12.802Z,5.22
2022-12-06T02:32:55.237Z,7.13
2022-12-06T02:35:34.537Z,5.68
2022-12-06T02:38:13.203Z,6.07
2022-12-06T02:40:51.018Z,6.40
2022-12-06T02:43:28.877Z,5.45
2022-12-06T02:46:04.780Z,6.20
2022-12-06T02:48:40.603Z,6.68
2022-12-06T02:51:16.944Z,6.30
2022-12-06T02:53:54.108Z,8.20
2022-12-06T02:56:27.554Z,5.47
2022-12-06T02:59:00.694Z,6.85
2022-12-06T03:01:36.860Z,5.68
2022-12-06T03:04:32.779Z,7.80
2022-12-06T03:07:17.890Z,5.38
2022-12-06T03:09:59.986Z,6.25
2022-12-06T03:12:40.755Z,5.25
2022-12-06T03:15:17.531Z,6.57
2022-12-06T03:17:55.241Z,6.78
2022-12-06T03:20:42.558Z,5.53
2022-12-06T03:23:20.453Z,6.05
2022-12-06T03:25:56.628Z,5.82
2022-12-06T03:28:31.195Z,5.43
2022-12-06T03:31:09.170Z,6.28
2022-12-06T03:33:48.260Z,5.30
2022-12-06T03:36:24.906Z,7.20
2022-12-06T03:39:02.796Z,6.32
2022-12-06T03:41:42.236Z,5.88
2022-12-06T03:44:15.439Z,5.97
2022-12-06T03:46:52.015Z,6.53
2022-12-06T03:49:32.349Z,6.13
2022-12-06T03:52:06.972Z,8.25
2022-12-06T03:54:40.853Z,6.72
2022-12-06T03:57:14.503Z,6.97
2022-12-06T03:59:47.317Z,7.10
2022-12-06T04:02:20.155Z,8.45
2022-12-06T04:04:53.344Z,5.97
2022-12-06T04:07:27.628Z,6.45
2022-12-06T04:10:03.841Z,7.32
2022-12-06T04:12:54.494Z,7.55
2022-12-06T04:15:29.433Z,7.55
2022-12-06T04:18:13.474Z,7.88
2022-12-06T04:21:08.728Z,6.68
2022-12-06T04:23:44.995Z,6.22
2022-12-06T04:26:19.819Z,7.40
2022-12-06T04:29:11.467Z,6.88
2022-12-06T04:32:01.631Z,6.35
2022-12-06T04:34:51.854Z,7.68
2022-12-06T04:37:42.108Z,6.35
2022-12-06T04:40:16.810Z,6.55
2022-12-06T04:43:06.891Z,7.35
2022-12-06T04:45:39.707Z,7.45
2022-12-06T04:48:12.956Z,7.10
2022-12-06T04:50:48.960Z,6.60
2022-12-06T04:53:21.934Z,9.15
2022-12-06T04:55:56.270Z,5.38
2022-12-06T04:58:29.092Z,6.13
2022-12-06T05:01:02.146Z,6.43
2022-12-06T05:03:38.346Z,6.25
2022-12-06T05:06:14.242Z,5.95
2022-12-06T05:08:47.379Z,5.78
2022-12-06T05:11:21.581Z,7.65
2022-12-06T05:13:54.345Z,6.15
2022-12-06T05:16:27.796Z,6.22
2022-12-06T05:19:00.717Z,6.38
2022-12-06T05:21:33.933Z,6.78
2022-12-06T05:24:07.424Z,6.93
2022-12-06T05:26:41.626Z,6.43
2022-12-06T05:29:14.481Z,5.90
2022-12-06T05:31:47.599Z,6.70
2022-12-06T05:34:20.936Z,8.10
2022-12-06T05:36:53.800Z,6.50
2022-12-06T05:39:26.751Z,6.25
2022-12-06T05:42:00.872Z,6.05
2022-12-06T05:44:33.996Z,7.18
2022-12-06T05:47:06.964Z,6.15
2022-12-06T05:49:39.843Z,8.90
2022-12-06T05:52:13.775Z,9.18
2022-12-06T05:54:46.521Z,9.02
2022-12-06T05:57:21.217Z,8.82
2022-12-06T05:59:54.615Z,9.48
2022-12-06T06:02:27.721Z,8.70
2022-12-06T06:05:01.208Z,7.95
2022-12-06T06:07:34.238Z,7.95
2022-12-06T06:10:08.318Z,7.93
2022-12-06T06:12:42.832Z,8.70
2022-12-06T06:15:16.569Z,7.50
2022-12-06T06:17:49.396Z,8.18
2022-12-06T06:20:22.427Z,7.50
2022-12-06T06:22:55.412Z,6.30
2022-12-06T06:25:28.306Z,7.60
2022-12-06T06:28:02.485Z,9.10
2022-12-06T06:30:35.594Z,8.85
2022-12-06T06:33:08.717Z,7.72
2022-12-06T06:35:42.726Z,7.03
2022-12-06T06:38:15.679Z,8.48
2022-12-06T06:40:48.529Z,9.05
2022-12-06T06:43:22.886Z,8.77
2022-12-06T06:45:58.109Z,7.57
2022-12-06T06:48:33.626Z,6.93
2022-12-06T06:51:08.501Z,7.57
2022-12-06T06:53:41.843Z,7.90
2022-12-06T06:56:14.885Z,7.15
2022-12-06T06:58:49.140Z,6.45
2022-12-06T07:01:24.139Z,8.00
2022-12-06T07:03:57.642Z,8.30
2022-12-06T07:06:30.743Z,15.13
2022-12-06T07:09:04.022Z,6.15
2022-12-06T07:11:36.908Z,8.23
2022-12-06T07:14:13.221Z,6.45
2022-12-06T07:16:46.273Z,7.55
2022-12-06T07:19:19.246Z,7.00
2022-12-06T07:21:52.342Z,6.53
2022-12-06T07:24:27.806Z,8.20
2022-12-06T07:27:00.978Z,13.38
2022-12-06T07:29:35.338Z,6.93
2022-12-06T07:32:08.247Z,9.63
2022-12-06T07:34:41.268Z,7.88
2022-12-06T07:37:15.256Z,6.22
2022-12-06T07:39:48.438Z,7.88
2022-12-06T07:42:38.819Z,9.35
2022-12-06T07:45:15.476Z,8.10
2022-12-06T07:47:48.762Z,7.30
2022-12-06T07:50:23.970Z,8.05
2022-12-06T07:52:57.038Z,7.22
2022-12-06T07:55:32.174Z,8.23
2022-12-06T07:58:05.078Z,7.88
2022-12-06T08:00:41.495Z,8.23
2022-12-06T08:03:14.380Z,9.32
2022-12-06T08:05:54.969Z,8.70
2022-12-06T08:08:29.084Z,8.40
2022-12-06T08:11:02.635Z,10.30
2022-12-06T08:13:37.481Z,10.18
2022-12-06T08:16:14.019Z,10.85
2022-12-06T08:18:47.161Z,11.63
2022-12-06T08:21:20.162Z,9.27
2022-12-06T08:23:54.301Z,7.28
2022-12-06T08:26:27.476Z,6.80
2022-12-06T08:29:01.295Z,6.30
2022-12-06T08:31:35.683Z,6.68
2022-12-06T08:34:08.919Z,7.07
2022-12-06T08:36:42.106Z,8.00
2022-12-06T08:39:15.025Z,7.97
2022-12-06T08:41:58.071Z,8.90
2022-12-06T08:44:32.716Z,10.13
2022-12-06T08:47:06.965Z,9.13
2022-12-06T08:49:39.931Z,9.57
2022-12-06T08:52:13.077Z,10.93
2022-12-06T08:54:45.941Z,8.30
2022-12-06T08:57:18.850Z,8.15
2022-12-06T08:59:51.752Z,7.43
2022-12-06T09:02:27.046Z,9.18
2022-12-06T09:05:00.022Z,8.95
2022-12-06T09:07:33.360Z,10.30
2022-12-06T09:10:07.558Z,9.25
2022-12-06T09:12:40.706Z,10.00
2022-12-06T09:15:13.661Z,13.13
2022-12-06T09:17:48.081Z,11.68
2022-12-06T09:20:20.907Z,11.05
2022-12-06T09:22:54.017Z,12.68
2022-12-06T09:25:26.950Z,13.27
2022-12-06T09:28:00.760Z,11.18
2022-12-06T09:30:33.556Z,12.85
2022-12-06T09:33:08.890Z,13.98
2022-12-06T09:35:41.755Z,13.98
2022-12-06T09:38:15.086Z,15.95
2022-12-06T09:40:56.841Z,13.32
2022-12-06T09:43:43.911Z,13.27
2022-12-06T09:46:32.232Z,14.40
2022-12-06T09:49:31.600Z,13.05
2022-12-06T09:52:23.130Z,12.23
2022-12-06T09:55:19.331Z,10.88
2022-12-06T09:58:00.856Z,10.43
2022-12-06T10:00:41.850Z,10.68
2022-12-06T10:03:41.881Z,23.13
2022-12-06T10:06:19.406Z,9.93
2022-12-06T10:09:05.026Z,9.77
2022-12-06T10:12:10.090Z,10.45
2022-12-06T10:15:05.534Z,10.75
2022-12-06T10:17:52.237Z,11.38
2022-12-06T10:20:36.046Z,11.60
2022-12-06T10:23:22.382Z,10.32
2022-12-06T10:26:04.731Z,11.95
2022-12-06T10:28:46.424Z,12.05
2022-12-06T10:31:24.807Z,10.00
2022-12-06T10:33:59.363Z,9.73
2022-12-06T10:36:43.614Z,11.32
2022-12-06T10:39:23.036Z,8.57
2022-12-06T10:42:04.031Z,10.25
2022-12-06T10:44:42.621Z,9.57
2022-12-06T10:47:21.070Z,7.60
2022-12-06T10:49:59.278Z,7.82
2022-12-06T10:52:41.992Z,10.27
2022-12-06T10:55:26.098Z,9.40
2022-12-06T10:58:11.527Z,6.97
2022-12-06T11:00:54.068Z,7.47
2022-12-06T11:03:35.062Z,7.95
2022-12-06T11:06:14.273Z,7.10
2022-12-06T11:08:52.019Z,6.35
2022-12-06T11:11:32.842Z,7.00
2022-12-06T11:14:12.730Z,7.25
2022-12-06T11:16:51.708Z,8.65
2022-12-06T11:19:31.759Z,6.22
2022-12-06T11:22:13.575Z,6.68
2022-12-06T11:24:54.271Z,6.00
2022-12-06T11:27:34.800Z,7.13
2022-12-06T11:30:19.764Z,6.90
2022-12-06T11:32:53.951Z,7.32
2022-12-06T11:35:29.634Z,6.80
2022-12-06T11:38:07.430Z,6.20
2022-12-06T11:40:44.914Z,5.80
2022-12-06T11:43:25.341Z,7.20
2022-12-06T11:45:59.424Z,5.78
2022-12-06T11:48:35.407Z,6.00
2022-12-06T11:51:16.771Z,6.97
2022-12-06T11:54:01.486Z,5.60
2022-12-06T11:56:38.407Z,5.22
2022-12-06T11:59:25.206Z,5.18
2022-12-06T12:02:00.895Z,5.30
2022-12-06T12:04:43.015Z,3.78
2022-12-06T12:07:18.455Z,3.38
2022-12-06T12:09:57.782Z,4.30
2022-12-06T12:13:07.558Z,5.15
2022-12-06T12:15:51.252Z,4.28
2022-12-06T12:18:27.726Z,9.98
2022-12-06T12:21:02.496Z,10.70
2022-12-06T12:23:38.695Z,10.13
2022-12-06T12:26:15.036Z,11.20
2022-12-06T12:29:06.058Z,11.75
2022-12-06T12:31:48.601Z,12.43
2022-12-06T12:34:23.255Z,13.27
2022-12-06T12:37:00.299Z,14.63
2022-12-06T12:39:36.181Z,13.77
2022-12-06T12:42:28.354Z,13.15
2022-12-06T12:45:04.420Z,13.98
2022-12-06T12:47:38.777Z,13.25
2022-12-06T12:50:20.919Z,15.25
2022-12-06T12:52:54.755Z,14.48
2022-12-06T12:55:30.401Z,15.88
2022-12-06T12:58:03.428Z,14.75
2022-12-06T13:00:39.887Z,15.13
2022-12-06T13:03:49.662Z,15.20
2022-12-06T13:06:24.401Z,14.60
2022-12-06T13:09:01.301Z,16.30
2022-12-06T13:11:49.106Z,16.27
2022-12-06T13:14:24.967Z,17.25
2022-12-06T13:17:01.754Z,14.27
2022-12-06T13:19:40.581Z,15.57
2022-12-06T13:22:24.842Z,17.67
2022-12-06T13:25:02.344Z,15.07
2022-12-06T13:27:39.027Z,15.70
2022-12-06T13:30:16.747Z,14.98
2022-12-06T13:32:53.369Z,14.98
2022-12-06T13:35:32.608Z,16.38
2022-12-06T13:38:27.061Z,14.57
2022-12-06T13:41:01.254Z,13.13
2022-12-06T13:43:55.837Z,15.25
2022-12-06T13:46:31.699Z,15.98
2022-12-06T13:49:24.959Z,15.20
2022-12-06T13:51:59.766Z,15.02
2022-12-06T13:54:33.453Z,15.52
2022-12-06T13:57:24.608Z,17.17
2022-12-06T13:59:58.450Z,13.73
2022-12-06T14:02:52.925Z,16.80
2022-12-06T14:08:43.721Z,13.60
2022-12-06T14:11:23.692Z,14.73
2022-12-06T14:14:08.861Z,13.82
2022-12-06T14:16:46.341Z,14.02
2022-12-06T14:19:21.550Z,16.90
2022-12-06T14:21:56.955Z,15.23
2022-12-06T14:24:35.213Z,14.85
2022-12-06T14:27:14.591Z,14.27
2022-12-06T14:30:02.037Z,15.95
2022-12-06T14:32:37.253Z,14.90
2022-12-06T14:35:15.879Z,15.10
2022-12-06T14:37:51.687Z,15.00
2022-12-06T14:40:45.400Z,15.75
2022-12-06T14:43:19.634Z,14.27
2022-12-06T14:45:53.731Z,15.32
2022-12-06T14:48:27.395Z,15.07
2022-12-06T14:51:02.077Z,18.23
2022-12-06T14:53:37.280Z,15.82
2022-12-06T14:56:23.606Z,17.27
2022-12-06T14:58:59.600Z,17.42
2022-12-06T15:01:32.996Z,16.08
2022-12-06T15:04:09.353Z,14.88
2022-12-06T15:06:53.216Z,17.05
2022-12-06T15:09:26.141Z,17.17
2022-12-06T15:12:37.925Z,16.75
2022-12-06T15:15:32.360Z,17.08
2022-12-06T15:18:14.060Z,14.90
2022-12-06T15:20:47.653Z,16.58
2022-12-06T15:23:31.592Z,15.52
2022-12-06T15:26:06.070Z,18.13
2022-12-06T15:28:41.547Z,17.45
2022-12-06T15:31:19.109Z,16.63
2022-12-06T15:33:52.210Z,15.82
2022-12-06T15:36:29.635Z,15.65
2022-12-06T15:39:02.552Z,17.30
2022-12-06T15:41:37.621Z,17.40
2022-12-06T15:44:15.513Z,16.17
2022-12-06T15:46:49.564Z,16.77
2022-12-06T15:49:25.581Z,17.10
2022-12-06T15:52:00.227Z,16.58
2022-12-06T15:54:33.157Z,15.25
2022-12-06T15:57:06.099Z,15.95
2022-12-06T15:59:40.368Z,16.95
2022-12-06T16:02:16.081Z,15.70
2022-12-06T16:04:50.953Z,15.18
2022-12-06T16:07:24.210Z,16.20
2022-12-06T16:09:57.522Z,15.23
2022-12-06T16:12:50.474Z,16.98
2022-12-06T16:15:25.522Z,17.58
2022-12-06T16:17:58.903Z,14.00
2022-12-06T16:20:32.043Z,15.23
2022-12-06T16:23:49.840Z,14.77
2022-12-06T16:26:24.366Z,14.80
2022-12-06T16:28:58.890Z,18.02
2022-12-06T16:31:38.303Z,15.30
2022-12-06T16:34:11.854Z,15.15
2022-12-06T16:36:59.766Z,17.90
2022-12-06T16:39:35.044Z,13.90
2022-12-06T16:42:08.060Z,15.95
2022-12-06T16:44:51.137Z,16.45
2022-12-06T16:49:57.801Z,15.30
2022-12-06T16:52:30.742Z,16.05
2022-12-06T16:55:03.927Z,15.63
2022-12-06T16:57:37.083Z,16.52
2022-12-06T17:00:12.334Z,18.73
2022-12-06T17:02:46.665Z,15.40
2022-12-06T17:05:22.476Z,15.38
2022-12-06T17:07:55.664Z,15.43
2022-12-06T17:10:28.758Z,15.35
2022-12-06T17:13:02.055Z,16.02
2022-12-06T17:15:35.058Z,15.82
2022-12-06T17:18:09.485Z,16.20
2022-12-06T17:20:42.375Z,19.33
2022-12-06T17:23:16.636Z,15.07
2022-12-06T17:25:58.041Z,17.63
2022-12-06T17:28:31.072Z,16.35
2022-12-06T17:31:08.399Z,17.58
2022-12-06T17:33:43.067Z,16.75
2022-12-06T17:36:17.634Z,18.63
2022-12-06T17:38:54.346Z,20.08
2022-12-06T17:41:51.590Z,16.83
2022-12-06T17:44:25.240Z,19.17
2022-12-06T17:46:58.302Z,21.02
2022-12-06T17:49:32.634Z,18.17
2022-12-06T17:52:06.414Z,15.48
2022-12-06T17:54:39.601Z,17.05
2022-12-06T17:57:16.259Z,16.40
2022-12-06T17:59:49.463Z,18.55
2022-12-06T18:02:25.824Z,15.50
2022-12-06T18:05:01.378Z,16.05
2022-12-06T18:07:35.337Z,16.23
2022-12-06T18:10:09.320Z,16.98
2022-12-06T18:12:42.436Z,17.45
2022-12-06T18:15:29.179Z,16.50
2022-12-06T18:18:02.399Z,15.27
2022-12-06T18:20:36.583Z,15.27
2022-12-06T18:23:10.398Z,20.13
2022-12-06T18:25:43.921Z,16.80
2022-12-06T18:28:17.299Z,15.00
2022-12-06T18:30:50.168Z,17.85
2022-12-06T18:33:27.891Z,15.25
2022-12-06T18:36:04.717Z,14.75
2022-12-06T18:38:37.920Z,16.30
2022-12-06T18:41:13.425Z,17.60
2022-12-06T18:43:46.824Z,18.40
2022-12-06T18:46:21.584Z,16.33
2022-12-06T18:48:56.860Z,18.60
2022-12-06T18:51:33.417Z,16.73
2022-12-06T18:54:07.109Z,16.42
2022-12-06T18:56:40.238Z,16.88
2022-12-06T18:59:13.484Z,16.25
2022-12-06T19:01:46.545Z,17.15
2022-12-06T19:04:19.552Z,16.90
2022-12-06T19:06:54.274Z,17.08
2022-12-06T19:09:27.525Z,15.55
2022-12-06T19:12:02.780Z,16.88
2022-12-06T19:14:35.867Z,15.23
2022-12-06T19:17:11.681Z,16.05
2022-12-06T19:19:44.572Z,15.80
2022-12-06T19:22:18.849Z,16.63
2022-12-06T19:24:51.741Z,17.00
2022-12-06T19:27:24.668Z,19.40
2022-12-06T19:29:57.555Z,18.88
2022-12-06T19:32:30.502Z,17.50
2022-12-06T19:35:08.380Z,19.95
2022-12-06T19:37:43.001Z,17.48
2022-12-06T19:40:16.120Z,18.73
2022-12-06T19:43:06.447Z,17.13
2022-12-06T19:45:40.011Z,17.40
2022-12-06T19:48:12.946Z,17.00
2022-12-06T19:50:46.037Z,17.23
2022-12-06T19:53:20.772Z,17.27
2022-12-06T19:55:53.751Z,19.73
2022-12-06T19:58:26.679Z,19.73
2022-12-06T20:00:59.602Z,18.48
2022-12-06T20:03:32.564Z,20.30
2022-12-06T20:06:08.057Z,17.40
2022-12-06T20:08:42.997Z,17.27
2022-12-06T20:11:37.952Z,16.33
2022-12-06T20:14:13.316Z,20.02
2022-12-06T20:16:46.621Z,19.70
2022-12-06T20:19:20.961Z,19.35
2022-12-06T20:21:53.941Z,20.35
2022-12-06T20:24:29.011Z,19.80
2022-12-06T20:27:03.556Z,21.00
2022-12-06T20:29:38.642Z,20.70
2022-12-06T20:32:11.566Z,20.67
2022-12-06T20:34:44.927Z,21.48
2022-12-06T20:37:18.218Z,19.63
2022-12-06T20:39:52.519Z,20.83
2022-12-06T20:42:26.558Z,21.27
2022-12-06T20:44:59.623Z,22.80
2022-12-06T20:47:32.932Z,22.25
2022-12-06T20:50:08.634Z,23.98
2022-12-06T20:52:41.792Z,24.05
2022-12-06T20:55:16.449Z,25.25
2022-12-06T20:57:49.351Z,22.92
2022-12-06T21:00:22.803Z,25.25
2022-12-06T21:02:55.942Z,23.75
2022-12-06T21:05:29.034Z,22.98
2022-12-06T21:08:02.011Z,24.40
2022-12-06T21:10:53.837Z,24.67
2022-12-06T21:13:30.383Z,24.63
2022-12-06T21:16:04.610Z,26.13
2022-12-06T21:18:38.087Z,25.92
2022-12-06T21:21:12.161Z,23.92
2022-12-06T21:23:45.064Z,23.88
2022-12-06T21:26:19.849Z,23.17
2022-12-06T21:28:54.558Z,22.90
2022-12-06T21:31:29.027Z,22.27
2022-12-06T21:34:02.837Z,25.50
2022-12-06T21:36:35.888Z,24.98
2022-12-06T21:39:09.813Z,24.67
2022-12-06T21:41:44.500Z,28.00
2022-12-06T21:44:17.759Z,27.08
2022-12-06T21:46:53.115Z,26.50
2022-12-06T21:49:26.646Z,24.42
2022-12-06T21:52:04.582Z,25.23
2022-12-06T21:54:41.885Z,23.48
2022-12-06T21:57:16.377Z,25.33
2022-12-06T21:59:49.366Z,24.33
2022-12-06T22:02:22.604Z,24.92
2022-12-06T22:04:55.777Z,24.45
2022-12-06T22:07:29.164Z,24.05
2022-12-06T22:10:02.362Z,25.50
2022-12-06T22:12:37.372Z,25.15
2022-12-06T22:15:11.494Z,26.13
2022-12-06T22:17:44.560Z,25.60
2022-12-06T22:20:17.548Z,25.88
2022-12-06T22:22:52.949Z,27.08
2022-12-06T22:25:26.928Z,24.52
2022-12-06T22:28:01.420Z,24.15
2022-12-06T22:30:34.913Z,27.02
2022-12-06T22:33:09.015Z,25.58
2022-12-06T22:35:42.063Z,25.02
2022-12-06T22:38:15.021Z,26.48
2022-12-06T22:40:56.975Z,25.70
2022-12-06T22:46:06.596Z,22.02
2022-12-06T22:48:41.208Z,23.55
2022-12-06T22:51:16.020Z,25.38
2022-12-06T22:53:54.399Z,26.10
2022-12-06T22:56:28.957Z,26.67
2022-12-06T22:59:04.105Z,25.52
2022-12-06T23:01:40.380Z,27.75
2022-12-06T23:04:13.597Z,24.58
2022-12-06T23:06:46.572Z,24.75
2022-12-06T23:09:19.592Z,29.27
2022-12-06T23:11:52.554Z,27.40
2022-12-06T23:14:26.962Z,24.38
2022-12-06T23:17:00.007Z,26.20
2022-12-06T23:19:33.094Z,23.95
2022-12-06T23:22:06.083Z,25.35
2022-12-06T23:24:39.247Z,25.88
2022-12-06T23:27:12.194Z,26.33
2022-12-06T23:29:46.580Z,28.50
2022-12-06T23:32:20.282Z,26.58
2022-12-06T23:34:53.372Z,24.83
2022-12-06T23:37:26.227Z,29.27
2022-12-06T23:40:00.045Z,26.77
2022-12-06T23:42:33.372Z,26.58
2022-12-06T23:45:09.442Z,28.25
2022-12-06T23:47:42.317Z,27.35
2022-12-06T23:50:15.533Z,28.38
2022-12-06T23:52:48.395Z,27.77
2022-12-06T23:55:21.418Z,27.70
2022-12-06T23:57:54.284Z,28.90
